Time;durP1;ratioP1;P1;durP2;ratioP2;P2;SDS_P1;SDS_P2;PMS_P1;PMS_P2;Temp;Humidity;BMP_temperature;BMP_pressure;BME280_temperature;BME280_humidity;BME280_pressure;Samples;Min_cycle;Max_cycle;Signal;HPM_P1;HPM_P2
2023/01/14 00:01:19;;;;;;;0.10;0.10;;;;;;;10.98;74.19;99267.00;7358014;19;20379;-58
2023/01/14 00:03:45;;;;;;;0.10;0.10;;;;;;;10.96;74.81;99243.56;7359149;19;20119;-58
2023/01/14 00:06:12;;;;;;;0.10;0.10;;;;;;;10.96;74.75;99242.72;7359225;19;20097;-58
2023/01/14 00:08:37;;;;;;;0.10;0.10;;;;;;;10.94;74.97;99237.56;7357755;19;20007;-58
2023/01/14 00:11:05;;;;;;;0.08;0.08;;;;;;;10.96;75.26;99229.66;7357953;19;20017;-58
2023/01/14 00:13:35;;;;;;;0.00;0.00;;;;;;;10.96;74.79;99214.84;7356480;19;20014;-58
2023/01/14 00:16:02;;;;;;;0.10;0.10;;;;;;;10.97;74.58;99213.06;7361540;19;20025;-59
2023/01/14 00:18:30;;;;;;;0.00;0.00;;;;;;;10.98;74.91;99202.53;7359859;19;20019;-58
2023/01/14 00:21:07;;;;;;;0.10;0.10;;;;;;;10.99;75.28;99195.53;7358487;19;20499;-59
2023/01/14 00:23:34;;;;;;;0.10;0.10;;;;;;;10.99;74.56;99188.56;7362020;19;20010;-58
2023/01/14 00:26:11;;;;;;;0.00;0.00;;;;;;;10.97;74.57;99168.66;7359863;19;20006;-58
2023/01/14 00:28:36;;;;;;;0.00;0.00;;;;;;;10.99;74.38;99170.25;7365984;19;20117;-58
2023/01/14 00:31:11;;;;;;;0.00;0.00;;;;;;;10.99;74.79;99159.81;7362557;19;20082;-58
2023/01/14 00:33:38;;;;;;;0.00;0.00;;;;;;;10.98;74.83;99155.53;7361205;19;20010;-59
2023/01/14 00:36:06;;;;;;;0.03;0.03;;;;;;;10.97;74.89;99140.78;7359131;19;20102;-58
2023/01/14 00:38:31;;;;;;;0.10;0.10;;;;;;;10.98;75.20;99147.69;7360672;19;20010;-58
2023/01/14 00:41:14;;;;;;;0.00;0.00;;;;;;;10.98;74.60;99123.34;7357613;19;20590;-59
2023/01/14 00:43:45;;;;;;;0.00;0.00;;;;;;;10.98;75.32;99132.00;7361366;19;20011;-58
2023/01/14 00:46:14;;;;;;;0.00;0.00;;;;;;;10.97;75.70;99124.25;7360423;19;20011;-59
2023/01/14 00:48:40;;;;;;;0.00;0.00;;;;;;;10.84;75.91;99095.28;7359052;19;20704;-58
2023/01/14 00:51:06;;;;;;;0.10;0.10;;;;;;;10.97;75.90;99105.97;7360119;19;20007;-58
2023/01/14 00:53:32;;;;;;;0.10;0.10;;;;;;;10.93;76.33;99094.00;7360020;19;20382;-58
2023/01/14 00:55:58;;;;;;;0.10;0.10;;;;;;;10.85;75.80;99063.06;7360363;19;20439;-58
2023/01/14 00:58:24;;;;;;;0.08;0.08;;;;;;;10.84;74.89;99058.72;7357064;19;20023;-58
2023/01/14 01:00:51;;;;;;;0.05;0.05;;;;;;;11.00;76.15;99088.41;7358936;19;20014;-59
2023/01/14 01:03:17;;;;;;;0.10;0.10;;;;;;;11.00;76.11;99069.25;7357618;19;20797;-58
2023/01/14 01:05:42;;;;;;;0.00;0.00;;;;;;;11.01;76.32;99058.75;7362496;19;20010;-58
2023/01/14 01:08:11;;;;;;;0.08;0.08;;;;;;;11.02;76.04;99049.13;7360699;19;20011;-58
2023/01/14 01:10:36;;;;;;;0.10;0.10;;;;;;;11.02;76.17;99042.13;7356765;19;20014;-58
2023/01/14 01:13:03;;;;;;;0.10;0.10;;;;;;;11.03;76.22;99036.00;7359185;19;20466;-58
2023/01/14 01:15:33;;;;;;;0.10;0.10;;;;;;;11.04;76.44;99032.44;7357875;19;20010;-59
2023/01/14 01:17:58;;;;;;;0.03;0.03;;;;;;;11.04;76.08;99027.22;7356980;19;20412;-58
2023/01/14 01:20:24;;;;;;;0.03;0.03;;;;;;;11.04;76.00;99006.31;7356859;19;20094;-58
2023/01/14 01:22:49;;;;;;;0.10;0.10;;;;;;;11.03;76.40;98999.41;7357982;19;20010;-58
2023/01/14 01:25:15;;;;;;;0.03;0.03;;;;;;;11.05;76.65;98987.16;7358332;19;20360;-58
2023/01/14 01:27:40;;;;;;;0.00;0.00;;;;;;;11.06;76.27;98977.53;7363560;19;20883;-58
2023/01/14 01:30:06;;;;;;;0.10;0.10;;;;;;;11.06;76.23;98973.16;7362047;19;20014;-58
2023/01/14 01:32:31;;;;;;;0.00;0.00;;;;;;;11.05;76.28;98966.25;7363143;19;20054;-57
2023/01/14 01:34:57;;;;;;;0.10;0.10;;;;;;;11.04;76.20;98958.47;7362362;19;20020;-58
2023/01/14 01:37:23;;;;;;;0.00;0.00;;;;;;;11.06;76.11;98944.41;7358977;19;21351;-58
2023/01/14 01:39:48;;;;;;;0.03;0.03;;;;;;;11.04;76.46;98943.63;7361865;19;20025;-58
2023/01/14 01:42:15;;;;;;;0.10;0.10;;;;;;;11.04;76.08;98933.19;7362278;19;20048;-58
2023/01/14 01:44:40;;;;;;;0.00;0.00;;;;;;;11.03;76.11;98936.72;7363752;19;20721;-58
2023/01/14 01:47:08;;;;;;;0.10;0.10;;;;;;;11.04;76.35;98922.75;7362128;19;20089;-58
2023/01/14 01:49:35;;;;;;;0.08;0.08;;;;;;;11.03;76.52;98917.59;7361068;19;20553;-58
2023/01/14 01:52:39;;;;;;;0.00;0.00;;;;;;;11.04;76.05;98912.28;7362617;19;20026;-58
2023/01/14 01:55:08;;;;;;;0.08;0.08;;;;;;;10.92;76.45;98876.41;7261364;19;2004530;-58
2023/01/14 01:57:36;;;;;;;0.00;0.00;;;;;;;11.01;76.56;98896.81;7362531;19;20027;-57
2023/01/14 02:00:09;;;;;;;0.10;0.10;;;;;;;11.01;76.89;98891.56;7363201;19;20763;-58
2023/01/14 02:02:34;;;;;;;0.10;0.10;;;;;;;10.99;76.75;98877.75;7356965;19;20015;-59
2023/01/14 02:05:01;;;;;;;0.10;0.10;;;;;;;10.98;76.86;98864.78;7363095;19;20027;-57
2023/01/14 02:07:27;;;;;;;0.10;0.10;;;;;;;10.97;77.07;98858.72;7363092;19;20038;-57
2023/01/14 02:09:56;;;;;;;0.00;0.00;;;;;;;10.96;77.40;98854.41;7361954;19;20070;-59
2023/01/14 02:12:30;;;;;;;0.00;0.00;;;;;;;11.00;76.58;98858.56;7362320;19;20006;-58
2023/01/14 02:15:26;;;;;;;0.10;0.10;;;;;;;10.98;76.47;98855.16;7362955;19;20620;-58
2023/01/14 02:18:00;;;;;;;0.00;0.00;;;;;;;10.97;77.19;98856.09;7258969;19;2004433;-58
2023/01/14 02:20:34;;;;;;;0.10;0.10;;;;;;;10.97;76.82;98848.25;7361688;19;20029;-58
2023/01/14 02:23:24;;;;;;;0.10;0.10;;;;;;;10.97;76.62;98837.81;7366895;19;20014;-58
2023/01/14 02:26:08;;;;;;;0.10;0.10;;;;;;;10.94;76.68;98827.53;7373840;19;20034;-58
2023/01/14 02:28:55;;;;;;;0.00;0.00;;;;;;;10.96;76.53;98819.63;7370655;19;20006;-58
2023/01/14 02:31:47;;;;;;;0.10;0.10;;;;;;;10.95;76.52;98818.78;7369831;19;20025;-58
2023/01/14 02:34:24;;;;;;;0.10;0.10;;;;;;;10.90;76.46;98810.38;7255375;19;2004377;-58
2023/01/14 02:36:54;;;;;;;;;;;;;;;10.95;75.85;98813.56;7362368;19;20010;-58
2023/01/14 02:39:38;;;;;;;0.05;0.05;;;;;;;10.91;75.86;98801.59;7363447;19;19930;-58
2023/01/14 02:45:08;;;;;;;0.00;0.00;;;;;;;10.88;77.19;98810.41;7257300;19;2004613;-57
2023/01/14 02:47:34;;;;;;;0.00;0.00;;;;;;;10.85;76.74;98802.78;7362817;19;20685;-58
2023/01/14 02:50:02;;;;;;;0.00;0.00;;;;;;;10.84;77.07;98810.66;7355483;19;20371;-58
2023/01/14 02:52:27;;;;;;;0.00;0.00;;;;;;;10.83;77.35;98798.53;7360495;19;20762;-56
2023/01/14 02:55:00;;;;;;;0.10;0.10;;;;;;;10.83;77.39;98798.53;7359881;19;20013;-58
2023/01/14 02:57:41;;;;;;;0.08;0.08;;;;;;;10.84;77.08;98800.22;7359763;19;20014;-58
2023/01/14 03:00:48;;;;;;;0.10;0.10;;;;;;;10.84;76.57;98795.84;7358405;19;20010;-57
2023/01/14 03:03:34;;;;;;;0.10;0.10;;;;;;;10.82;77.33;98792.47;7256596;19;2004487;-57
2023/01/14 03:06:00;;;;;;;0.10;0.10;;;;;;;10.80;77.04;98777.84;7361586;19;20017;-56
2023/01/14 03:08:36;;;;;;;0.10;0.10;;;;;;;10.81;77.38;98779.53;7352633;19;23593;-58
2023/01/14 03:11:09;;;;;;;0.00;0.00;;;;;;;10.80;77.30;98765.63;7358479;19;20027;-58
2023/01/14 03:13:49;;;;;;;0.00;0.00;;;;;;;10.80;76.89;98762.19;7358971;19;20101;-57
2023/01/14 03:16:38;;;;;;;0.10;0.10;;;;;;;10.81;76.90;98758.63;7360650;19;20037;-56
2023/01/14 03:19:18;;;;;;;0.00;0.00;;;;;;;10.77;77.18;98750.13;7355883;19;20842;-58
2023/01/14 03:21:49;;;;;;;0.10;0.10;;;;;;;10.78;77.28;98748.34;7357957;19;20117;-58
2023/01/14 03:24:22;;;;;;;0.00;0.00;;;;;;;10.72;77.02;98733.03;7354774;19;20748;-58
2023/01/14 03:26:48;;;;;;;0.10;0.10;;;;;;;10.74;77.44;98737.22;7361883;19;20061;-58
2023/01/14 03:29:23;;;;;;;0.00;0.00;;;;;;;10.76;76.96;98734.53;7358834;19;21443;-56
2023/01/14 03:31:56;;;;;;;0.00;0.00;;;;;;;10.74;77.02;98723.31;7360204;19;20014;-57
2023/01/14 03:34:29;;;;;;;0.00;0.00;;;;;;;10.74;77.30;98720.72;7360377;19;20003;-58
2023/01/14 03:36:57;;;;;;;0.00;0.00;;;;;;;10.72;77.29;98706.91;7358017;19;20030;-57
2023/01/14 03:39:26;;;;;;;0.00;0.00;;;;;;;10.69;77.64;98694.88;7361896;19;20010;-57
2023/01/14 03:45:06;;;;;;;0.05;0.05;;;;;;;10.71;77.58;98668.69;7357336;19;20048;-58
2023/01/14 03:47:35;;;;;;;0.10;0.10;;;;;;;10.70;77.65;98667.00;7352145;19;20017;-58
2023/01/14 03:50:12;;;;;;;0.10;0.10;;;;;;;10.69;77.69;98666.16;7358176;19;20044;-58
2023/01/14 03:52:58;;;;;;;0.10;0.10;;;;;;;10.67;77.69;98654.13;7356521;19;20018;-57
2023/01/14 03:55:32;;;;;;;0.00;0.00;;;;;;;10.69;77.46;98665.31;7356156;19;20030;-57
2023/01/14 03:58:30;;;;;;;0.10;0.10;;;;;;;10.68;77.76;98654.03;7352524;19;20034;-58
2023/01/14 04:01:03;;;;;;;0.10;0.10;;;;;;;10.65;77.71;98644.63;7258085;19;2004548;-58
2023/01/14 04:03:29;;;;;;;0.05;0.05;;;;;;;10.51;77.74;98628.88;7352052;19;20010;-58
2023/01/14 04:05:55;;;;;;;0.10;0.10;;;;;;;10.63;77.85;98645.63;7355516;19;20010;-58
2023/01/14 04:08:22;;;;;;;0.10;0.10;;;;;;;10.62;77.73;98639.56;7360147;19;20795;-58
2023/01/14 04:10:48;;;;;;;0.10;0.10;;;;;;;10.61;77.73;98643.09;7358908;19;20010;-58
2023/01/14 04:16:01;;;;;;;0.00;0.00;;;;;;;10.48;77.07;98616.00;7359225;19;20021;-58
2023/01/14 04:18:27;;;;;;;0.10;0.10;;;;;;;10.59;77.07;98638.88;7357745;19;20058;-58
2023/01/14 04:20:52;;;;;;;0.00;0.00;;;;;;;10.60;77.40;98632.75;7352406;19;20011;-58
2023/01/14 04:23:18;;;;;;;0.00;0.00;;;;;;;10.57;77.58;98622.47;7347192;19;22743;-58
2023/01/14 04:25:43;;;;;;;0.10;0.10;;;;;;;10.46;77.52;98603.97;7355913;19;20024;-58
2023/01/14 04:28:09;;;;;;;0.00;0.00;;;;;;;10.58;77.36;98640.66;7355039;19;20009;-57
2023/01/14 04:30:34;;;;;;;0.00;0.00;;;;;;;10.59;77.47;98639.75;7359444;19;20011;-58
2023/01/14 04:33:00;;;;;;;0.10;0.10;;;;;;;10.60;77.47;98637.97;7360468;19;20363;-58
2023/01/14 04:35:25;;;;;;;0.10;0.10;;;;;;;10.61;77.19;98637.88;7354680;19;20024;-58
2023/01/14 04:37:54;;;;;;;0.00;0.00;;;;;;;10.55;77.43;98642.59;7360423;19;21069;-58
2023/01/14 04:40:20;;;;;;;0.10;0.10;;;;;;;10.60;77.06;98657.09;7356066;19;20035;-58
2023/01/14 04:42:46;;;;;;;0.10;0.10;;;;;;;10.58;77.63;98653.69;7357107;19;20030;-58
2023/01/14 04:45:11;;;;;;;0.10;0.10;;;;;;;10.58;77.20;98661.53;7358866;19;20760;-57
2023/01/14 04:47:38;;;;;;;0.10;0.10;;;;;;;10.55;77.27;98653.88;7359196;19;20030;-58
2023/01/14 04:50:30;;;;;;;0.00;0.00;;;;;;;10.54;77.21;98641.78;7358943;19;20106;-57
2023/01/14 04:52:50;;;;;;;0.00;0.00;;;;;;;10.41;77.33;98614.66;7357700;19;20015;-56
2023/01/14 04:55:16;;;;;;;0.10;0.10;;;;;;;10.50;77.18;98628.97;7356860;19;20006;-58
2023/01/14 04:57:41;;;;;;;0.00;0.00;;;;;;;10.46;77.04;98630.91;7357058;19;20014;-58
2023/01/14 05:00:08;;;;;;;0.10;0.10;;;;;;;10.42;77.41;98620.72;7357214;19;22123;-58
2023/01/14 05:02:33;;;;;;;0.00;0.00;;;;;;;10.41;77.27;98619.03;7365052;19;20015;-58
2023/01/14 05:04:59;;;;;;;0.10;0.10;;;;;;;10.38;77.13;98633.91;7361769;19;20484;-58
2023/01/14 05:07:24;;;;;;;0.10;0.10;;;;;;;10.36;77.37;98633.16;7364085;19;20128;-58
2023/01/14 05:09:49;;;;;;;0.00;0.00;;;;;;;10.32;77.31;98623.81;7362602;19;20735;-58
2023/01/14 05:12:15;;;;;;;0.00;0.00;;;;;;;10.32;77.39;98636.03;7366259;19;20010;-58
2023/01/14 05:14:40;;;;;;;0.00;0.00;;;;;;;10.28;77.40;98634.50;7362342;19;20041;-58
2023/01/14 05:17:06;;;;;;;0.00;0.00;;;;;;;10.30;77.63;98637.88;7365069;19;20015;-58
2023/01/14 05:19:31;;;;;;;0.00;0.00;;;;;;;10.29;77.76;98630.97;7361361;19;20022;-58
2023/01/14 05:21:57;;;;;;;0.00;0.00;;;;;;;10.26;77.64;98631.16;7363105;19;20018;-58
2023/01/14 05:24:22;;;;;;;0.10;0.10;;;;;;;10.23;77.60;98650.38;7364361;19;20479;-58
2023/01/14 05:26:48;;;;;;;0.10;0.10;;;;;;;10.24;77.69;98648.63;7362069;19;20738;-58
2023/01/14 05:29:13;;;;;;;0.10;0.10;;;;;;;10.22;77.85;98647.84;7357689;19;20025;-58
2023/01/14 05:31:39;;;;;;;0.00;0.00;;;;;;;10.21;77.32;98643.56;7359023;19;20023;-58
2023/01/14 05:34:04;;;;;;;0.00;0.00;;;;;;;10.19;77.64;98632.34;7365851;19;20029;-58
2023/01/14 05:36:30;;;;;;;0.00;0.00;;;;;;;10.12;77.46;98635.31;7359849;19;20018;-58
2023/01/14 05:38:55;;;;;;;0.00;0.00;;;;;;;10.12;77.57;98634.47;7366044;19;20017;-57
2023/01/14 05:41:21;;;;;;;0.00;0.00;;;;;;;10.10;77.65;98637.16;7360163;19;20363;-58
2023/01/14 05:46:30;;;;;;;0.10;0.10;;;;;;;10.05;77.25;98641.78;7363960;19;20740;-58
2023/01/14 05:48:55;;;;;;;0.10;0.10;;;;;;;10.01;77.15;98632.44;7362294;19;20022;-58
2023/01/14 05:51:20;;;;;;;0.00;0.00;;;;;;;9.97;76.63;98630.91;7363755;19;20014;-58
2023/01/14 05:53:46;;;;;;;0.08;0.08;;;;;;;9.93;77.12;98623.34;7359048;19;20010;-58
2023/01/14 05:56:11;;;;;;;0.00;0.00;;;;;;;9.85;76.78;98613.31;7362495;19;20726;-58
2023/01/14 05:58:37;;;;;;;0.00;0.00;;;;;;;9.71;76.62;98597.56;7363584;19;20031;-58
2023/01/14 06:06:39;;;;;;;0.10;0.10;;;;;;;9.62;76.62;98625.78;7364817;19;20464;-57
2023/01/14 06:09:09;;;;;;;0.00;0.00;;;;;;;9.55;76.61;98619.22;7361650;19;20029;-58
2023/01/14 06:11:34;;;;;;;0.00;0.00;;;;;;;9.42;76.90;98606.91;7362345;19;20014;-58
2023/01/14 06:14:02;;;;;;;0.00;0.00;;;;;;;9.36;76.71;98619.31;7363169;19;20701;-59
2023/01/14 06:16:39;;;;;;;0.00;0.00;;;;;;;9.34;76.72;98626.38;7361458;19;20758;-58
2023/01/14 06:19:08;;;;;;;0.00;0.00;;;;;;;9.25;76.25;98631.22;7362221;19;20021;-58
2023/01/14 06:21:35;;;;;;;0.00;0.00;;;;;;;9.22;76.45;98641.75;7358780;19;20021;-58
2023/01/14 06:24:01;;;;;;;0.00;0.00;;;;;;;9.09;76.73;98641.53;7361299;19;20016;-58
2023/01/14 06:26:27;;;;;;;0.00;0.00;;;;;;;9.04;76.62;98633.97;7359171;19;20011;-58
2023/01/14 06:28:58;;;;;;;0.00;0.00;;;;;;;9.06;76.38;98636.47;7362275;19;20682;-57
2023/01/14 06:31:23;;;;;;;0.00;0.00;;;;;;;8.98;76.86;98643.84;7358912;19;20030;-56
2023/01/14 06:33:49;;;;;;;0.00;0.00;;;;;;;8.94;76.76;98640.53;7362437;19;20015;-58
2023/01/14 06:36:14;;;;;;;0.00;0.00;;;;;;;8.90;76.71;98641.59;7362207;19;20793;-58
2023/01/14 06:38:40;;;;;;;0.10;0.10;;;;;;;8.85;76.82;98635.78;7361899;19;20010;-58
2023/01/14 06:41:08;;;;;;;0.10;0.10;;;;;;;8.81;76.91;98631.63;7360198;19;20142;-58
2023/01/14 06:43:34;;;;;;;0.00;0.00;;;;;;;8.78;77.23;98637.00;7361927;19;20013;-58
2023/01/14 06:45:59;;;;;;;0.00;0.00;;;;;;;8.74;77.17;98645.88;7361160;19;20483;-58
2023/01/14 06:48:26;;;;;;;0.10;0.10;;;;;;;8.72;77.38;98652.91;7359759;19;20018;-58
2023/01/14 06:50:52;;;;;;;0.00;0.00;;;;;;;8.57;77.19;98624.13;7360756;19;20035;-57
2023/01/14 06:53:18;;;;;;;0.00;0.00;;;;;;;8.66;77.25;98645.38;7357933;19;20017;-58
2023/01/14 06:55:43;;;;;;;0.00;0.00;;;;;;;8.65;77.50;98641.09;7360040;19;20465;-58
2023/01/14 06:58:09;;;;;;;0.10;0.10;;;;;;;8.65;77.61;98625.50;7353207;19;20051;-58
2023/01/14 07:00:35;;;;;;;0.00;0.00;;;;;;;8.59;77.29;98626.63;7357219;19;20094;-58
2023/01/14 07:03:00;;;;;;;0.10;0.10;;;;;;;8.60;77.41;98632.66;7363106;19;20500;-58
2023/01/14 07:05:26;;;;;;;0.00;0.00;;;;;;;8.58;77.85;98645.75;7357501;19;20046;-58
2023/01/14 07:07:52;;;;;;;0.00;0.00;;;;;;;8.56;77.82;98635.41;7359448;19;20011;-58
2023/01/14 07:10:18;;;;;;;0.00;0.00;;;;;;;8.55;77.42;98649.34;7361625;19;20010;-58
2023/01/14 07:12:47;;;;;;;0.10;0.10;;;;;;;8.54;77.73;98644.22;7359189;19;20003;-58
2023/01/14 07:15:14;;;;;;;0.00;0.00;;;;;;;8.51;77.73;98655.59;7358053;19;20077;-58
2023/01/14 07:17:40;;;;;;;0.00;0.00;;;;;;;8.50;77.90;98659.13;7360611;19;20335;-58
2023/01/14 07:20:07;;;;;;;0.00;0.00;;;;;;;8.47;78.00;98656.69;7360100;19;20022;-58
2023/01/14 07:22:32;;;;;;;0.00;0.00;;;;;;;8.45;77.62;98661.09;7357315;19;20090;-58
2023/01/14 07:24:59;;;;;;;0.00;0.00;;;;;;;8.46;77.53;98667.97;7359602;19;20031;-58
2023/01/14 07:27:25;;;;;;;0.08;0.08;;;;;;;8.44;77.68;98682.81;7360438;19;20011;-58
2023/01/14 07:29:50;;;;;;;0.10;0.10;;;;;;;8.42;77.64;98687.25;7360118;19;20021;-59
2023/01/14 07:32:16;;;;;;;0.00;0.00;;;;;;;8.39;77.50;98682.19;7358910;19;20050;-58
2023/01/14 07:34:41;;;;;;;0.00;0.00;;;;;;;8.38;77.67;98685.72;7360970;19;20006;-58
2023/01/14 07:37:06;;;;;;;0.00;0.00;;;;;;;8.36;77.49;98691.84;7357476;19;20013;-58
2023/01/14 07:39:32;;;;;;;0.03;0.03;;;;;;;8.33;77.84;98680.69;7359420;19;20394;-58
2023/01/14 07:41:57;;;;;;;0.10;0.10;;;;;;;8.31;77.35;98674.72;7356665;19;20034;-57
2023/01/14 07:44:24;;;;;;;0.10;0.10;;;;;;;8.26;77.63;98675.81;7357492;19;20267;-59
2023/01/14 07:46:54;;;;;;;0.10;0.10;;;;;;;8.26;77.51;98673.22;7359963;19;20017;-58
2023/01/14 07:49:20;;;;;;;0.00;0.00;;;;;;;8.22;77.57;98674.28;7356585;19;20426;-58
2023/01/14 07:51:46;;;;;;;0.00;0.00;;;;;;;8.19;77.36;98679.63;7360050;19;20007;-58
2023/01/14 07:54:11;;;;;;;0.00;0.00;;;;;;;8.18;77.36;98683.13;7356112;19;20049;-58
2023/01/14 07:56:37;;;;;;;0.10;0.10;;;;;;;8.14;77.33;98691.97;7361338;19;20078;-58
2023/01/14 07:59:02;;;;;;;0.10;0.10;;;;;;;8.11;77.45;98686.91;7355362;19;20033;-58
2023/01/14 08:01:27;;;;;;;0.10;0.10;;;;;;;8.10;77.33;98711.22;7358942;19;20026;-57
2023/01/14 08:03:53;;;;;;;0.10;0.10;;;;;;;8.04;77.32;98700.19;7355111;19;20092;-56
2023/01/14 08:06:18;;;;;;;0.03;0.03;;;;;;;8.02;77.59;98706.38;7354659;19;20021;-58
2023/01/14 08:08:43;;;;;;;0.00;0.00;;;;;;;7.82;77.00;98681.28;7360450;19;20007;-58
2023/01/14 08:11:09;;;;;;;0.00;0.00;;;;;;;7.96;77.07;98706.66;7353629;19;20470;-58
2023/01/14 08:13:35;;;;;;;0.05;0.05;;;;;;;7.96;77.30;98715.28;7359585;19;20018;-58
2023/01/14 08:16:01;;;;;;;0.00;0.00;;;;;;;7.93;77.07;98714.56;7356390;19;20013;-58
2023/01/14 08:18:29;;;;;;;0.00;0.00;;;;;;;7.82;77.09;98709.84;7358788;19;20965;-58
2023/01/14 08:21:05;;;;;;;0.10;0.10;;;;;;;7.88;77.06;98717.38;7357089;19;20450;-58
2023/01/14 08:23:34;;;;;;;0.00;0.00;;;;;;;7.84;77.25;98717.56;7360482;19;20015;-58
2023/01/14 08:26:01;;;;;;;0.00;0.00;;;;;;;7.81;76.94;98721.16;7358921;19;20014;-57
2023/01/14 08:28:27;;;;;;;0.10;0.10;;;;;;;7.69;76.82;98711.28;7355549;19;20837;-59
2023/01/14 08:31:13;;;;;;;0.00;0.00;;;;;;;7.76;76.73;98736.09;7341718;19;20018;-58
2023/01/14 08:33:44;;;;;;;0.10;0.10;;;;;;;7.71;76.91;98741.50;7355506;19;20044;-58
2023/01/14 08:36:12;;;;;;;0.00;0.00;;;;;;;7.68;76.57;98730.38;7353872;19;20010;-57
2023/01/14 08:38:40;;;;;;;0.00;0.00;;;;;;;7.66;76.81;98737.41;7358167;19;20030;-58
2023/01/14 08:41:08;;;;;;;0.00;0.00;;;;;;;7.60;76.91;98732.44;7355476;19;20023;-58
2023/01/14 08:43:33;;;;;;;;;;;;;;;7.57;76.67;98728.22;7355834;19;20007;-58
2023/01/14 08:46:00;;;;;;;0.03;0.03;;;;;;;7.52;76.53;98740.56;7356368;19;19919;-58
2023/01/14 08:48:25;;;;;;;0.10;0.10;;;;;;;7.48;76.78;98739.00;7355598;19;20003;-59
2023/01/14 08:50:51;;;;;;;0.10;0.10;;;;;;;7.44;76.63;98738.28;7354156;19;20043;-58
2023/01/14 08:53:16;;;;;;;0.00;0.00;;;;;;;7.38;76.81;98738.53;7357282;19;20109;-58
2023/01/14 08:55:41;;;;;;;0.10;0.10;;;;;;;7.36;77.09;98740.38;7358669;19;20023;-57
2023/01/14 08:58:08;;;;;;;0.08;0.08;;;;;;;7.33;76.83;98750.84;7355363;19;20035;-58
2023/01/14 09:00:34;;;;;;;0.10;0.10;;;;;;;7.32;77.29;98751.78;7354169;19;20003;-57
2023/01/14 09:02:59;;;;;;;0.00;0.00;;;;;;;7.31;77.35;98763.06;7356986;19;20021;-59
2023/01/14 09:05:25;;;;;;;0.10;0.10;;;;;;;7.29;77.10;98765.72;7358671;19;20010;-59
2023/01/14 09:18:57;;;;;;;0.10;0.10;;;;;;;7.17;77.07;98760.19;7256122;19;2004511;-58
2023/01/14 09:21:24;;;;;;;0.00;0.00;;;;;;;7.13;76.94;98771.59;7347375;19;20022;-58
2023/01/14 09:23:49;;;;;;;0.10;0.10;;;;;;;7.15;76.90;98782.75;7355631;19;20015;-58
2023/01/14 09:26:15;;;;;;;0.00;0.00;;;;;;;7.11;76.95;98788.97;7357691;19;20474;-58
2023/01/14 09:28:41;;;;;;;0.10;0.10;;;;;;;7.11;77.39;98766.47;7354107;19;20015;-59
2023/01/14 09:31:06;;;;;;;0.03;0.03;;;;;;;7.12;77.32;98803.63;7358027;19;22180;-58
2023/01/14 09:33:31;;;;;;;0.10;0.10;;;;;;;7.10;77.52;98795.91;7357187;19;20216;-59
2023/01/14 09:36:00;;;;;;;0.10;0.10;;;;;;;7.08;77.60;98778.69;7357931;19;20003;-58
2023/01/14 09:38:25;;;;;;;0.10;0.10;;;;;;;7.13;77.98;98800.13;7359642;19;20172;-58
2023/01/14 09:40:51;;;;;;;0.10;0.10;;;;;;;7.04;77.75;98780.56;7357546;19;20102;-58
2023/01/14 09:43:18;;;;;;;0.05;0.05;;;;;;;7.18;77.71;98795.59;7354361;19;20015;-57
2023/01/14 09:45:46;;;;;;;0.10;0.10;;;;;;;7.21;78.09;98798.94;7356301;19;20041;-58
2023/01/14 09:48:16;;;;;;;0.03;0.03;;;;;;;7.23;78.00;98785.88;7365281;19;20394;-58
2023/01/14 09:51:07;;;;;;;0.10;0.10;;;;;;;7.29;77.65;98790.81;7363169;19;20011;-59
2023/01/14 09:53:57;;;;;;;0.00;0.00;;;;;;;7.32;77.93;98788.13;7262086;19;2004583;-59
2023/01/14 09:56:38;;;;;;;0.00;0.00;;;;;;;7.38;77.84;98802.59;7365349;19;21073;-58
2023/01/14 09:59:25;;;;;;;0.10;0.10;;;;;;;7.43;77.90;98804.09;7365404;19;20014;-58
2023/01/14 10:02:18;;;;;;;0.00;0.00;;;;;;;7.56;78.14;98795.84;7365296;19;20103;-58
2023/01/14 10:04:55;;;;;;;0.00;0.00;;;;;;;7.66;78.34;98786.75;7259264;19;2004473;-59
2023/01/14 10:07:22;;;;;;;0.00;0.00;;;;;;;7.75;77.87;98789.78;7364600;19;20117;-58
2023/01/14 10:09:56;;;;;;;0.00;0.00;;;;;;;7.87;77.64;98783.25;7364918;19;21122;-58
2023/01/14 10:12:27;;;;;;;0.00;0.00;;;;;;;7.89;76.81;98776.22;7366173;19;20608;-59
2023/01/14 10:15:22;;;;;;;0.10;0.10;;;;;;;8.11;77.05;98788.28;7363714;19;20006;-58
2023/01/14 10:18:04;;;;;;;0.10;0.10;;;;;;;8.17;77.06;98793.25;7260770;19;2004299;-59
2023/01/14 10:20:35;;;;;;;0.00;0.00;;;;;;;8.33;76.39;98807.25;7364655;19;20056;-58
2023/01/14 10:23:32;;;;;;;0.10;0.10;;;;;;;8.47;77.16;98810.16;7362031;19;20050;-59
2023/01/14 10:25:59;;;;;;;0.10;0.10;;;;;;;8.58;75.99;98813.09;7262174;19;2004435;-59
2023/01/14 10:28:28;;;;;;;0.05;0.05;;;;;;;8.76;75.54;98807.97;7363969;19;20414;-58
2023/01/14 10:30:57;;;;;;;0.08;0.08;;;;;;;8.91;75.53;98814.22;7360129;19;20025;-58
2023/01/14 10:33:22;;;;;;;0.00;0.00;;;;;;;9.00;75.25;98825.06;7360625;19;20099;-58
2023/01/14 10:35:59;;;;;;;0.03;0.03;;;;;;;9.18;74.99;98817.34;7356007;19;20010;-58
2023/01/14 10:38:27;;;;;;;0.10;0.10;;;;;;;9.30;74.05;98808.94;7348550;19;20094;-58
2023/01/14 10:41:00;;;;;;;0.00;0.00;;;;;;;9.47;74.19;98818.53;7360160;19;20135;-58
2023/01/14 10:43:33;;;;;;;0.10;0.10;;;;;;;9.61;74.25;98836.94;7359532;19;20074;-58
2023/01/14 10:45:58;;;;;;;0.03;0.03;;;;;;;9.64;73.26;98813.34;7363281;19;20101;-59
2023/01/14 10:48:25;;;;;;;0.10;0.10;;;;;;;9.77;72.70;98787.50;7365081;19;20088;-58
2023/01/14 10:50:51;;;;;;;0.00;0.00;;;;;;;9.97;72.51;98834.28;7361884;19;20020;-58
2023/01/14 10:53:24;;;;;;;0.10;0.10;;;;;;;10.08;72.29;98823.31;7363523;19;20047;-58
2023/01/14 10:55:52;;;;;;;0.00;0.00;;;;;;;10.20;71.55;98819.25;7358275;19;20039;-58
2023/01/14 10:58:40;;;;;;;0.10;0.10;;;;;;;10.37;70.49;98827.09;7352301;19;20106;-61
2023/01/14 11:01:08;;;;;;;0.03;0.03;;;;;;;10.41;70.00;98822.56;7259892;19;2004585;-57
2023/01/14 11:03:48;;;;;;;0.00;0.00;;;;;;;10.49;70.54;98820.38;7360954;19;20845;-59
2023/01/14 11:06:16;;;;;;;0.00;0.00;;;;;;;10.54;69.41;98814.00;7360902;19;20622;-58
2023/01/14 11:08:51;;;;;;;0.10;0.10;;;;;;;10.65;69.71;98829.94;7358365;19;20011;-58
2023/01/14 11:11:22;;;;;;;0.00;0.00;;;;;;;10.69;68.49;98816.72;7358631;19;20017;-58
2023/01/14 11:13:50;;;;;;;0.10;0.10;;;;;;;10.63;67.85;98813.50;7357545;19;20017;-57
2023/01/14 11:16:22;;;;;;;0.03;0.03;;;;;;;10.59;68.57;98806.78;7359267;19;20674;-59
2023/01/14 11:19:03;;;;;;;0.10;0.10;;;;;;;10.59;68.14;98791.13;7357407;19;20026;-58
2023/01/14 11:21:39;;;;;;;0.10;0.10;;;;;;;10.50;68.16;98785.53;7360298;19;20010;-58
2023/01/14 11:24:20;;;;;;;0.10;0.10;;;;;;;10.59;68.40;98785.91;7360520;19;20006;-58
2023/01/14 11:26:45;;;;;;;0.00;0.00;;;;;;;10.64;67.33;98783.88;7359701;19;20503;-58
2023/01/14 11:29:25;;;;;;;0.00;0.00;;;;;;;10.78;67.80;98790.13;7357199;19;20006;-58
2023/01/14 11:32:03;;;;;;;0.10;0.10;;;;;;;10.89;67.46;98788.59;7352488;19;20031;-58
2023/01/14 11:34:41;;;;;;;0.08;0.08;;;;;;;11.00;67.13;98789.78;7356028;19;20013;-58
2023/01/14 11:37:10;;;;;;;0.10;0.10;;;;;;;11.09;66.80;98789.28;7356211;19;20082;-58
2023/01/14 11:39:38;;;;;;;0.03;0.03;;;;;;;11.20;66.21;98783.47;7359812;19;20009;-58
2023/01/14 11:42:25;;;;;;;0.00;0.00;;;;;;;11.35;66.89;98777.38;7359376;19;20803;-58
2023/01/14 11:45:10;;;;;;;0.00;0.00;;;;;;;11.34;65.62;98780.91;7261251;19;2004511;-58
2023/01/14 11:47:55;;;;;;;0.03;0.03;;;;;;;11.54;65.10;98801.53;7360085;19;20022;-58
2023/01/14 11:50:21;;;;;;;0.00;0.00;;;;;;;11.55;63.15;98797.97;7360715;19;20010;-58
2023/01/14 11:53:02;;;;;;;0.10;0.10;;;;;;;11.68;64.74;98803.38;7360960;19;20438;-58
2023/01/14 11:55:31;;;;;;;0.00;0.00;;;;;;;11.61;63.29;98766.28;7360429;19;20014;-58
2023/01/14 11:58:03;;;;;;;0.10;0.10;;;;;;;11.73;62.77;98782.19;7362450;19;20054;-58
2023/01/14 12:00:31;;;;;;;0.00;0.00;;;;;;;11.79;63.62;98794.91;7355607;19;20045;-58
2023/01/14 12:03:04;;;;;;;0.00;0.00;;;;;;;11.95;63.02;98800.94;7357495;19;20038;-59
2023/01/14 12:05:29;;;;;;;0.08;0.08;;;;;;;12.03;61.72;98818.81;7358372;19;20014;-58
2023/01/14 12:07:59;;;;;;;0.00;0.00;;;;;;;12.12;61.44;98829.59;7359690;19;20014;-58
2023/01/14 12:10:30;;;;;;;0.10;0.10;;;;;;;12.09;62.32;98808.00;7356123;19;20013;-58
2023/01/14 12:19:21;;;;;;;0.10;0.10;;;;;;;12.54;62.56;98819.25;7253347;19;2004265;-58
2023/01/14 12:22:17;;;;;;;0.00;0.00;;;;;;;12.69;61.48;98837.50;7255285;19;2005484;-58
2023/01/14 12:25:15;;;;;;;0.00;0.00;;;;;;;12.66;61.38;98802.78;7255547;19;2004565;-58